createdAt,value
2023-01-17T00:00:05.555Z,973.60
2023-01-17T00:01:05.458Z,973.66
2023-01-17T00:02:05.452Z,973.66
2023-01-17T00:03:05.453Z,973.66
2023-01-17T00:04:05.466Z,973.72
2023-01-17T00:05:05.428Z,973.68
2023-01-17T00:06:05.402Z,973.70
2023-01-17T00:07:05.461Z,973.74
2023-01-17T00:08:05.376Z,973.69
2023-01-17T00:09:05.386Z,973.72
2023-01-17T00:10:05.357Z,973.68
2023-01-17T00:11:05.377Z,973.70
2023-01-17T00:12:05.344Z,973.72
2023-01-17T00:13:05.363Z,973.76
2023-01-17T00:14:05.334Z,973.79
2023-01-17T00:15:05.326Z,973.75
2023-01-17T00:16:05.314Z,973.79
2023-01-17T00:17:05.307Z,973.78
2023-01-17T00:18:05.292Z,973.84
2023-01-17T00:19:05.289Z,973.86
2023-01-17T00:20:05.259Z,973.85
2023-01-17T00:21:05.275Z,973.88
2023-01-17T00:22:05.237Z,973.89
2023-01-17T00:23:05.247Z,973.85
2023-01-17T00:24:05.256Z,973.92
2023-01-17T00:25:05.227Z,973.96
2023-01-17T00:26:05.344Z,973.97
2023-01-17T00:27:05.207Z,973.96
2023-01-17T00:28:05.177Z,973.97
2023-01-17T00:29:05.214Z,973.99
2023-01-17T00:30:05.161Z,974.05
2023-01-17T00:31:05.236Z,974.04
2023-01-17T00:32:05.133Z,974.05
2023-01-17T00:33:05.148Z,974.03
2023-01-17T00:34:05.120Z,974.06
2023-01-17T00:35:05.147Z,974.07
2023-01-17T00:36:05.093Z,974.05
2023-01-17T00:37:05.118Z,974.13
2023-01-17T00:38:05.092Z,974.08
2023-01-17T00:39:05.090Z,974.10
2023-01-17T00:40:05.295Z,974.12
2023-01-17T00:41:05.068Z,974.16
2023-01-17T00:42:05.035Z,974.17
2023-01-17T00:43:05.042Z,974.18
2023-01-17T00:44:05.026Z,974.20
2023-01-17T00:45:05.022Z,974.17
2023-01-17T00:46:05.017Z,974.23
2023-01-17T00:47:05.011Z,974.19
2023-01-17T00:48:04.987Z,974.21
2023-01-17T00:49:04.988Z,974.25
2023-01-17T00:50:04.951Z,974.26
2023-01-17T00:51:04.988Z,974.29
2023-01-17T00:52:04.941Z,974.29
2023-01-17T00:53:04.950Z,974.29
2023-01-17T00:54:04.911Z,974.33
2023-01-17T00:55:04.922Z,974.33
2023-01-17T00:56:04.885Z,974.39
2023-01-17T00:57:04.917Z,974.35
2023-01-17T00:58:04.871Z,974.41
2023-01-17T00:59:04.893Z,974.39
2023-01-17T01:00:04.911Z,974.40
2023-01-17T01:01:04.957Z,974.42
2023-01-17T01:02:05.135Z,974.42
2023-01-17T01:03:04.837Z,974.43
2023-01-17T01:04:04.804Z,974.44
2023-01-17T01:05:04.824Z,974.44
2023-01-17T01:06:04.799Z,974.53
2023-01-17T01:07:04.807Z,974.50
2023-01-17T01:08:04.793Z,974.44
2023-01-17T01:09:04.795Z,974.46
2023-01-17T01:10:04.754Z,974.43
2023-01-17T01:11:04.765Z,974.49
2023-01-17T01:12:04.731Z,974.49
2023-01-17T01:13:04.769Z,974.48
2023-01-17T01:14:04.705Z,974.50
2023-01-17T01:15:04.718Z,974.51
2023-01-17T01:16:04.804Z,974.50
2023-01-17T01:17:04.696Z,974.51
2023-01-17T01:18:04.663Z,974.53
2023-01-17T01:19:04.711Z,974.60
2023-01-17T01:20:04.686Z,974.54
2023-01-17T01:21:04.661Z,974.54
2023-01-17T01:22:04.623Z,974.54
2023-01-17T01:23:04.636Z,974.52
2023-01-17T01:24:04.633Z,974.52
2023-01-17T01:25:04.626Z,974.59
2023-01-17T01:26:04.587Z,974.54
2023-01-17T01:27:04.600Z,974.60
2023-01-17T01:28:04.572Z,974.59
2023-01-17T01:29:04.597Z,974.62
2023-01-17T01:30:04.559Z,974.60
2023-01-17T01:31:04.562Z,974.65
2023-01-17T01:32:04.529Z,974.65
2023-01-17T01:33:04.536Z,974.69
2023-01-17T01:34:04.501Z,974.69
2023-01-17T01:35:04.554Z,974.70
2023-01-17T01:36:04.481Z,974.72
2023-01-17T01:37:04.496Z,974.72
2023-01-17T01:38:04.462Z,974.76
2023-01-17T01:39:04.486Z,974.72
2023-01-17T01:40:04.516Z,974.79
2023-01-17T01:41:04.468Z,974.76
2023-01-17T01:42:04.424Z,974.88
2023-01-17T01:43:04.432Z,974.75
2023-01-17T01:44:04.423Z,974.86
2023-01-17T01:45:04.424Z,974.77
2023-01-17T01:46:04.438Z,974.83
2023-01-17T01:47:04.416Z,974.84
2023-01-17T01:48:04.386Z,974.76
2023-01-17T01:49:04.378Z,974.85
2023-01-17T01:50:04.363Z,974.88
2023-01-17T01:51:04.362Z,974.85
2023-01-17T01:52:04.337Z,975.02
2023-01-17T01:53:04.348Z,974.94
2023-01-17T01:54:04.302Z,974.92
2023-01-17T01:55:04.313Z,974.92
2023-01-17T01:56:04.288Z,974.96
2023-01-17T01:57:04.305Z,974.99
2023-01-17T01:58:04.282Z,975.09
2023-01-17T01:59:04.327Z,975.07
2023-01-17T02:00:04.249Z,975.07
2023-01-17T02:01:04.367Z,975.17
2023-01-17T02:02:04.230Z,975.05
2023-01-17T02:03:04.253Z,975.02
2023-01-17T02:04:04.204Z,975.03
2023-01-17T02:05:04.870Z,975.10
2023-01-17T02:06:04.182Z,975.14
2023-01-17T02:07:04.196Z,975.12
2023-01-17T02:08:04.177Z,975.17
2023-01-17T02:09:04.195Z,975.21
2023-01-17T02:10:04.159Z,975.19
2023-01-17T02:11:04.150Z,975.20
2023-01-17T02:12:04.136Z,975.20
2023-01-17T02:13:04.165Z,975.25
2023-01-17T02:14:04.105Z,975.31
2023-01-17T02:15:04.106Z,975.30
2023-01-17T02:16:04.089Z,975.32
2023-01-17T02:17:04.093Z,975.38
2023-01-17T02:18:04.053Z,975.39
2023-01-17T02:19:04.086Z,975.52
2023-01-17T02:20:04.037Z,975.46
2023-01-17T02:21:04.049Z,975.46
2023-01-17T02:22:04.018Z,975.46
2023-01-17T02:23:04.029Z,975.51
2023-01-17T02:24:03.997Z,975.54
2023-01-17T02:25:04.042Z,975.63
2023-01-17T02:26:03.976Z,975.55
2023-01-17T02:27:04.003Z,975.59
2023-01-17T02:28:03.965Z,975.61
2023-01-17T02:29:03.972Z,975.62
2023-01-17T02:30:03.974Z,975.64
2023-01-17T02:31:03.958Z,975.61
2023-01-17T02:32:03.917Z,975.67
2023-01-17T02:33:03.927Z,975.67
2023-01-17T02:34:03.947Z,975.70
2023-01-17T02:35:03.909Z,975.71
2023-01-17T02:36:03.888Z,975.70
2023-01-17T02:37:03.888Z,975.72
2023-01-17T02:38:03.870Z,975.77
2023-01-17T02:39:03.891Z,975.76
2023-01-17T02:40:03.836Z,975.73
2023-01-17T02:41:03.886Z,975.91
2023-01-17T02:42:03.812Z,975.75
2023-01-17T02:43:03.831Z,975.78
2023-01-17T02:44:03.818Z,975.88
2023-01-17T02:45:03.808Z,975.87
2023-01-17T02:46:03.846Z,975.85
2023-01-17T02:47:03.799Z,975.91
2023-01-17T02:48:03.757Z,975.92
2023-01-17T02:49:03.767Z,975.93
2023-01-17T02:50:03.736Z,975.94
2023-01-17T02:51:03.760Z,975.92
2023-01-17T02:52:03.723Z,976.02
2023-01-17T02:53:03.752Z,975.88
2023-01-17T02:54:03.713Z,975.94
2023-01-17T02:55:03.715Z,976.03
2023-01-17T02:56:03.681Z,976.03
2023-01-17T02:57:03.695Z,975.97
2023-01-17T02:58:03.684Z,976.09
2023-01-17T02:59:03.685Z,976.15
2023-01-17T03:00:03.637Z,976.05
2023-01-17T03:01:03.756Z,976.09
2023-01-17T03:02:03.881Z,976.14
2023-01-17T03:03:03.676Z,976.21
2023-01-17T03:04:03.595Z,976.23
2023-01-17T03:05:03.630Z,976.29
2023-01-17T03:06:03.570Z,976.21
2023-01-17T03:07:03.591Z,976.31
2023-01-17T03:08:03.578Z,976.30
2023-01-17T03:09:03.575Z,976.32
2023-01-17T03:10:03.570Z,976.41
2023-01-17T03:11:03.550Z,976.39
2023-01-17T03:12:03.543Z,976.39
2023-01-17T03:13:03.527Z,976.41
2023-01-17T03:14:03.505Z,976.54
2023-01-17T03:15:03.520Z,976.42
2023-01-17T03:16:03.487Z,976.47
2023-01-17T03:17:03.486Z,976.55
2023-01-17T03:18:03.448Z,976.56
2023-01-17T03:19:03.474Z,976.58
2023-01-17T03:20:03.458Z,976.70
2023-01-17T03:21:03.441Z,976.85
2023-01-17T03:22:03.412Z,976.70
2023-01-17T03:23:03.439Z,976.71
2023-01-17T03:24:03.390Z,976.73
2023-01-17T03:25:03.423Z,976.80
2023-01-17T03:26:03.377Z,976.80
2023-01-17T03:27:03.380Z,976.78
2023-01-17T03:28:03.362Z,976.75
2023-01-17T03:29:03.378Z,976.78
2023-01-17T03:30:03.336Z,976.75
2023-01-17T03:31:03.462Z,976.72
2023-01-17T03:32:03.312Z,976.84
2023-01-17T03:33:03.320Z,976.80
2023-01-17T03:34:03.286Z,976.88
2023-01-17T03:35:03.304Z,976.85
2023-01-17T03:36:03.284Z,976.92
2023-01-17T03:37:03.310Z,976.91
2023-01-17T03:38:03.252Z,976.99
2023-01-17T03:39:03.267Z,976.98
2023-01-17T03:40:03.237Z,976.96
2023-01-17T03:41:03.241Z,976.98
2023-01-17T03:42:03.225Z,977.02
2023-01-17T03:43:03.224Z,977.03
2023-01-17T03:44:03.192Z,977.06
2023-01-17T03:45:03.201Z,977.08
2023-01-17T03:46:03.201Z,977.07
2023-01-17T03:47:03.207Z,977.13
2023-01-17T03:48:03.168Z,977.15
2023-01-17T03:49:03.176Z,977.13
2023-01-17T03:50:03.146Z,977.13
2023-01-17T03:51:03.168Z,977.17
2023-01-17T03:52:03.111Z,977.18
2023-01-17T03:53:03.151Z,977.18
2023-01-17T03:54:03.085Z,977.13
2023-01-17T03:55:03.101Z,977.21
2023-01-17T03:56:03.071Z,977.19
2023-01-17T03:57:03.086Z,977.18
2023-01-17T03:58:03.079Z,977.25
2023-01-17T03:59:03.081Z,977.31
2023-01-17T04:00:03.034Z,977.26
2023-01-17T04:01:03.136Z,977.32
2023-01-17T04:02:03.214Z,977.46
2023-01-17T04:03:03.023Z,977.34
2023-01-17T04:04:03.004Z,977.35
2023-01-17T04:05:02.998Z,977.42
2023-01-17T04:06:02.967Z,977.42
2023-01-17T04:07:02.996Z,977.45
2023-01-17T04:08:02.944Z,977.41
2023-01-17T04:09:02.989Z,977.54
2023-01-17T04:10:02.931Z,977.52
2023-01-17T04:11:02.925Z,977.64
2023-01-17T04:12:02.944Z,977.49
2023-01-17T04:13:02.898Z,977.63
2023-01-17T04:14:02.919Z,977.65
2023-01-17T04:15:02.934Z,977.71
2023-01-17T04:16:02.890Z,977.66
2023-01-17T04:17:02.883Z,977.74
2023-01-17T04:18:02.855Z,977.76
2023-01-17T04:19:02.864Z,977.63
2023-01-17T04:20:02.854Z,977.65
2023-01-17T04:21:02.847Z,977.69
2023-01-17T04:22:02.817Z,977.69
2023-01-17T04:23:02.819Z,977.71
2023-01-17T04:24:02.784Z,977.71
2023-01-17T04:25:02.812Z,977.77
2023-01-17T04:26:02.780Z,977.78
2023-01-17T04:27:02.789Z,977.81
2023-01-17T04:28:02.756Z,977.82
2023-01-17T04:29:02.761Z,977.83
2023-01-17T04:30:02.764Z,977.87
2023-01-17T04:31:02.850Z,977.89
2023-01-17T04:32:02.713Z,977.91
2023-01-17T04:33:02.725Z,977.93
2023-01-17T04:34:02.688Z,977.97
2023-01-17T04:35:02.699Z,977.95
2023-01-17T04:36:02.683Z,977.99
2023-01-17T04:37:02.693Z,977.96
2023-01-17T04:38:02.669Z,978.01
2023-01-17T04:39:02.683Z,978.03
2023-01-17T04:40:02.637Z,978.09
2023-01-17T04:41:02.663Z,978.12
2023-01-17T04:42:02.633Z,978.08
2023-01-17T04:43:02.639Z,978.13
2023-01-17T04:44:02.585Z,978.13
2023-01-17T04:45:02.608Z,978.13
2023-01-17T04:46:02.577Z,978.16
2023-01-17T04:47:02.580Z,978.18
2023-01-17T04:48:02.578Z,978.19
2023-01-17T04:49:02.565Z,978.19
2023-01-17T04:50:02.524Z,978.24
2023-01-17T04:51:02.550Z,978.23
2023-01-17T04:52:02.507Z,978.27
2023-01-17T04:53:02.565Z,978.26
2023-01-17T04:54:02.503Z,978.28
2023-01-17T04:55:02.507Z,978.26
2023-01-17T04:56:02.474Z,978.26
2023-01-17T04:57:02.486Z,978.25
2023-01-17T04:58:02.447Z,978.26
2023-01-17T04:59:02.475Z,978.28
2023-01-17T05:00:02.437Z,978.29
2023-01-17T05:01:02.513Z,978.31
2023-01-17T05:02:02.517Z,978.31
2023-01-17T05:03:02.524Z,978.30
2023-01-17T05:04:02.418Z,978.33
2023-01-17T05:05:02.427Z,978.36
2023-01-17T05:06:02.373Z,978.31
2023-01-17T05:07:02.389Z,978.32
2023-01-17T05:08:02.346Z,978.29
2023-01-17T05:09:02.360Z,978.35
2023-01-17T05:10:02.358Z,978.36
2023-01-17T05:11:02.341Z,978.37
2023-01-17T05:12:02.303Z,978.40
2023-01-17T05:13:02.324Z,978.41
2023-01-17T05:14:02.305Z,978.40
2023-01-17T05:15:02.314Z,978.42
2023-01-17T05:16:02.447Z,978.42
2023-01-17T05:17:02.279Z,978.46
2023-01-17T05:18:02.249Z,978.45
2023-01-17T05:19:02.259Z,978.45
2023-01-17T05:20:02.229Z,978.47
2023-01-17T05:21:02.271Z,978.52
2023-01-17T05:22:02.208Z,978.55
2023-01-17T05:23:02.220Z,978.58
2023-01-17T05:24:02.186Z,978.55
2023-01-17T05:25:02.197Z,978.54
2023-01-17T05:26:02.182Z,978.59
2023-01-17T05:27:02.183Z,978.62
2023-01-17T05:28:02.148Z,978.67
2023-01-17T05:29:02.162Z,978.65
2023-01-17T05:30:02.167Z,978.72
2023-01-17T05:31:02.171Z,978.68
2023-01-17T05:32:02.124Z,978.71
2023-01-17T05:33:02.118Z,978.73
2023-01-17T05:34:02.093Z,978.77
2023-01-17T05:35:02.126Z,978.77
2023-01-17T05:36:02.069Z,978.75
2023-01-17T05:37:02.103Z,978.75
2023-01-17T05:38:02.098Z,978.72
2023-01-17T05:39:02.065Z,978.74
2023-01-17T05:40:02.027Z,978.73
2023-01-17T05:41:02.061Z,978.77
2023-01-17T05:42:02.024Z,978.78
2023-01-17T05:43:02.039Z,978.78
2023-01-17T05:44:01.989Z,978.78
2023-01-17T05:45:01.999Z,978.80
2023-01-17T05:46:02.065Z,978.84
2023-01-17T05:47:01.981Z,978.85
2023-01-17T05:48:01.973Z,978.84
2023-01-17T05:49:01.964Z,978.88
2023-01-17T05:50:01.935Z,978.89
2023-01-17T05:51:01.946Z,978.88
2023-01-17T05:52:01.902Z,978.88
2023-01-17T05:53:01.927Z,978.88
2023-01-17T05:54:01.909Z,978.88
2023-01-17T05:55:01.913Z,978.89
2023-01-17T05:56:01.874Z,978.90
2023-01-17T05:57:01.881Z,978.93
2023-01-17T05:58:01.852Z,978.92
2023-01-17T05:59:01.879Z,978.93
2023-01-17T06:00:01.827Z,978.95
2023-01-17T06:01:01.907Z,978.94
2023-01-17T06:02:01.805Z,978.95
2023-01-17T06:03:01.843Z,978.97
2023-01-17T06:04:01.794Z,979.01
2023-01-17T06:05:03.431Z,978.99
2023-01-17T06:06:01.775Z,979.04
2023-01-17T06:07:01.784Z,979.04
2023-01-17T06:08:01.749Z,979.08
2023-01-17T06:09:01.757Z,979.11
2023-01-17T06:10:01.769Z,979.14
2023-01-17T06:11:01.747Z,979.17
2023-01-17T06:12:01.704Z,979.17
2023-01-17T06:13:01.724Z,979.16
2023-01-17T06:14:01.691Z,979.16
2023-01-17T06:15:01.704Z,979.16
2023-01-17T06:16:01.729Z,979.20
2023-01-17T06:17:01.693Z,979.17
2023-01-17T06:18:01.644Z,979.17
2023-01-17T06:19:01.685Z,979.19
2023-01-17T06:20:01.631Z,979.21
2023-01-17T06:21:01.670Z,979.23
2023-01-17T06:22:01.622Z,979.23
2023-01-17T06:23:01.621Z,979.24
2023-01-17T06:24:03.979Z,979.28
2023-01-17T06:25:01.600Z,979.19
2023-01-17T06:26:01.567Z,979.29
2023-01-17T06:27:01.601Z,979.31
2023-01-17T06:28:01.550Z,979.33
2023-01-17T06:29:01.565Z,979.32
2023-01-17T06:30:01.540Z,979.34
2023-01-17T06:31:01.669Z,979.35
2023-01-17T06:32:01.896Z,979.35
2023-01-17T06:33:01.543Z,979.37
2023-01-17T06:34:01.517Z,979.37
2023-01-17T06:35:01.531Z,979.39
2023-01-17T06:36:01.470Z,979.39
2023-01-17T06:37:01.511Z,979.42
2023-01-17T06:38:01.461Z,979.43
2023-01-17T06:39:01.463Z,979.44
2023-01-17T06:40:01.431Z,979.47
2023-01-17T06:41:01.457Z,979.51
2023-01-17T06:42:01.418Z,979.50
2023-01-17T06:43:01.453Z,979.50
2023-01-17T06:44:01.396Z,979.51
2023-01-17T06:45:01.397Z,979.50
2023-01-17T06:46:01.371Z,979.53
2023-01-17T06:47:01.388Z,979.52
2023-01-17T06:48:01.363Z,979.53
2023-01-17T06:49:01.369Z,979.59
2023-01-17T06:50:01.324Z,979.58
2023-01-17T06:51:01.343Z,979.59
2023-01-17T06:52:01.306Z,979.64
2023-01-17T06:53:01.316Z,979.62
2023-01-17T06:54:01.333Z,979.62
2023-01-17T06:55:01.308Z,979.62
2023-01-17T06:56:01.271Z,979.63
2023-01-17T06:57:01.274Z,979.62
2023-01-17T06:58:01.255Z,979.65
2023-01-17T06:59:01.259Z,979.66
2023-01-17T07:00:01.597Z,979.67
2023-01-17T07:01:01.304Z,979.69
2023-01-17T07:02:01.208Z,979.66
2023-01-17T07:03:01.226Z,979.68
2023-01-17T07:04:01.247Z,979.72
2023-01-17T07:05:01.230Z,979.73
2023-01-17T07:06:01.169Z,979.75
2023-01-17T07:07:01.180Z,979.78
2023-01-17T07:08:01.144Z,979.80
2023-01-17T07:09:01.158Z,979.79
2023-01-17T07:10:01.138Z,979.83
2023-01-17T07:11:01.145Z,979.84
2023-01-17T07:12:01.105Z,979.87
2023-01-17T07:13:01.112Z,979.87
2023-01-17T07:14:01.083Z,979.85
2023-01-17T07:15:01.105Z,979.92
2023-01-17T07:16:01.203Z,979.90
2023-01-17T07:17:01.075Z,979.93
2023-01-17T07:18:01.042Z,979.91
2023-01-17T07:19:01.057Z,979.96
2023-01-17T07:20:01.025Z,979.99
2023-01-17T07:21:01.041Z,980.01
2023-01-17T07:22:01.013Z,980.00
2023-01-17T07:23:01.014Z,980.00
2023-01-17T07:24:00.997Z,980.05
2023-01-17T07:25:01.003Z,980.07
2023-01-17T07:26:00.959Z,980.11
2023-01-17T07:27:01.007Z,980.12
2023-01-17T07:28:00.944Z,980.12
2023-01-17T07:29:00.953Z,980.16
2023-01-17T07:30:00.930Z,980.19
2023-01-17T07:31:00.985Z,980.15
2023-01-17T07:32:00.900Z,980.16
2023-01-17T07:33:00.924Z,980.18
2023-01-17T07:34:00.881Z,980.20
2023-01-17T07:35:00.895Z,980.23
2023-01-17T07:36:00.865Z,980.24
2023-01-17T07:37:00.882Z,980.24
2023-01-17T07:38:00.857Z,980.25
2023-01-17T07:39:00.853Z,980.25
2023-01-17T07:40:00.828Z,980.24
2023-01-17T07:41:00.833Z,980.25
2023-01-17T07:42:00.851Z,980.23
2023-01-17T07:43:00.819Z,980.25
2023-01-17T07:44:00.794Z,980.25
2023-01-17T07:45:00.792Z,980.28
2023-01-17T07:46:02.199Z,980.28
2023-01-17T07:47:00.784Z,980.30
2023-01-17T07:48:00.747Z,980.32
2023-01-17T07:49:00.776Z,980.31
2023-01-17T07:50:00.721Z,980.34
2023-01-17T07:51:00.732Z,980.32
2023-01-17T07:52:00.714Z,980.30
2023-01-17T07:53:00.713Z,980.31
2023-01-17T07:54:00.682Z,980.33
2023-01-17T07:55:00.714Z,980.34
2023-01-17T07:56:00.665Z,980.33
2023-01-17T07:57:00.675Z,980.34
2023-01-17T07:58:02.855Z,980.36
2023-01-17T07:59:00.660Z,980.35
2023-01-17T08:00:00.647Z,980.36
2023-01-17T08:01:00.780Z,980.36
2023-01-17T08:02:00.809Z,980.37
2023-01-17T08:03:00.618Z,980.39
2023-01-17T08:04:00.632Z,980.40
2023-01-17T08:05:00.616Z,980.41
2023-01-17T08:06:00.571Z,980.41
2023-01-17T08:07:00.571Z,980.41
2023-01-17T08:08:00.539Z,980.43
2023-01-17T08:09:00.557Z,980.43
2023-01-17T08:10:00.528Z,980.42
2023-01-17T08:11:00.561Z,980.42
2023-01-17T08:12:00.529Z,980.43
2023-01-17T08:13:00.527Z,980.42
2023-01-17T08:14:00.496Z,980.43
2023-01-17T08:15:00.495Z,980.42
2023-01-17T08:16:00.529Z,980.42
2023-01-17T08:17:00.483Z,980.40
2023-01-17T08:18:00.443Z,980.40
2023-01-17T08:19:00.448Z,980.41
2023-01-17T08:20:00.435Z,980.41
2023-01-17T08:21:00.431Z,980.40
2023-01-17T08:22:00.423Z,980.40
2023-01-17T08:23:00.416Z,980.38
2023-01-17T08:24:00.379Z,980.37
2023-01-17T08:25:00.391Z,980.34
2023-01-17T08:26:00.358Z,980.34
2023-01-17T08:27:00.453Z,980.31
2023-01-17T08:28:00.354Z,980.31
2023-01-17T08:29:00.429Z,980.31
2023-01-17T08:30:00.319Z,980.30
2023-01-17T08:31:00.334Z,980.29
2023-01-17T08:32:00.306Z,980.28
2023-01-17T08:33:00.330Z,980.27
2023-01-17T08:34:00.321Z,980.27
2023-01-17T08:35:00.273Z,980.28
2023-01-17T08:36:00.278Z,980.29
2023-01-17T08:37:00.252Z,980.28
2023-01-17T08:38:00.257Z,980.30
2023-01-17T08:39:00.236Z,980.28
2023-01-17T08:40:00.238Z,980.31
2023-01-17T08:41:00.213Z,980.29
2023-01-17T08:42:00.219Z,980.28
2023-01-17T08:43:00.209Z,980.28
2023-01-17T08:44:00.229Z,980.28
2023-01-17T08:45:00.168Z,980.28
2023-01-17T08:46:00.480Z,980.27
2023-01-17T08:47:00.148Z,980.29
2023-01-17T08:48:00.163Z,980.27
2023-01-17T08:49:00.214Z,980.29
2023-01-17T08:50:00.168Z,980.28
2023-01-17T08:51:00.111Z,980.29
2023-01-17T08:52:00.137Z,980.29
2023-01-17T08:53:01.200Z,980.33
2023-01-17T08:54:00.155Z,980.35
2023-01-17T08:55:00.105Z,980.35
2023-01-17T08:56:00.103Z,980.36
2023-01-17T08:57:00.063Z,980.39
2023-01-17T08:58:00.109Z,980.39
2023-01-17T08:59:00.025Z,980.42
2023-01-17T09:00:00.042Z,980.46
2023-01-17T09:01:00.142Z,980.44
2023-01-17T09:02:00.211Z,980.44
2023-01-17T09:02:59.989Z,980.44
2023-01-17T09:04:00.025Z,980.47
2023-01-17T09:04:59.977Z,980.47
2023-01-17T09:06:00.006Z,980.45
2023-01-17T09:06:59.946Z,980.45
2023-01-17T09:07:59.959Z,980.44
2023-01-17T09:08:59.925Z,980.46
2023-01-17T09:09:59.950Z,980.48
2023-01-17T09:10:59.913Z,980.51
2023-01-17T09:11:59.930Z,980.52
2023-01-17T09:12:59.946Z,980.50
2023-01-17T09:13:59.901Z,980.51
2023-01-17T09:14:59.866Z,980.51
2023-01-17T09:15:59.877Z,980.51
2023-01-17T09:16:59.867Z,980.51
2023-01-17T09:17:59.869Z,980.51
2023-01-17T09:18:59.829Z,980.50
2023-01-17T09:19:59.838Z,980.50
2023-01-17T09:20:59.807Z,980.50
2023-01-17T09:21:59.832Z,980.50
2023-01-17T09:22:59.797Z,980.50
2023-01-17T09:23:59.802Z,980.49
2023-01-17T09:24:59.766Z,980.52
2023-01-17T09:25:59.781Z,980.54
2023-01-17T09:26:59.747Z,980.54
2023-01-17T09:27:59.829Z,980.57
2023-01-17T09:28:59.727Z,980.54
2023-01-17T09:29:59.777Z,980.58
2023-01-17T09:30:59.749Z,980.53
2023-01-17T09:31:59.715Z,980.53
2023-01-17T09:32:59.681Z,980.54
2023-01-17T09:33:59.709Z,980.53
2023-01-17T09:34:59.664Z,980.51
2023-01-17T09:35:59.680Z,980.50
2023-01-17T09:36:59.646Z,980.51
2023-01-17T09:37:59.660Z,980.51
2023-01-17T09:38:59.660Z,980.52
2023-01-17T09:39:59.648Z,980.51
2023-01-17T09:40:59.602Z,980.52
2023-01-17T09:41:59.622Z,980.55
2023-01-17T09:42:59.581Z,980.57
2023-01-17T09:43:59.596Z,980.58
2023-01-17T09:44:59.575Z,980.54
2023-01-17T09:45:59.688Z,980.53
2023-01-17T09:46:59.587Z,980.59
2023-01-17T09:47:59.555Z,980.61
2023-01-17T09:48:59.532Z,980.66
2023-01-17T09:49:59.553Z,980.63
2023-01-17T09:50:59.513Z,980.67
2023-01-17T09:51:59.517Z,980.69
2023-01-17T09:52:59.479Z,980.71
2023-01-17T09:53:59.493Z,980.74
2023-01-17T09:54:59.465Z,980.73
2023-01-17T09:55:59.486Z,980.73
2023-01-17T09:56:59.440Z,980.71
2023-01-17T09:57:59.454Z,980.74
2023-01-17T09:58:59.448Z,980.71
2023-01-17T10:00:03.528Z,980.70
2023-01-17T10:00:59.539Z,980.70
2023-01-17T10:01:59.551Z,980.72
2023-01-17T10:02:59.430Z,980.72
2023-01-17T10:03:59.509Z,980.71
2023-01-17T10:04:59.386Z,980.74
2023-01-17T10:05:59.401Z,980.72
2023-01-17T10:06:59.340Z,980.75
2023-01-17T10:07:59.364Z,980.73
2023-01-17T10:08:59.339Z,980.75
2023-01-17T10:09:59.338Z,980.79
2023-01-17T10:10:59.301Z,980.78
2023-01-17T10:11:59.320Z,980.76
2023-01-17T10:12:59.282Z,980.80
2023-01-17T10:13:59.297Z,980.83
2023-01-17T10:14:59.259Z,980.83
2023-01-17T10:16:00.214Z,980.89
2023-01-17T10:16:59.307Z,980.84
2023-01-17T10:17:59.254Z,980.89
2023-01-17T10:18:59.222Z,980.81
2023-01-17T10:19:59.231Z,980.84
2023-01-17T10:20:59.197Z,980.81
2023-01-17T10:21:59.220Z,980.78
2023-01-17T10:22:59.188Z,980.82
2023-01-17T10:23:59.211Z,980.82
2023-01-17T10:24:59.213Z,980.80
2023-01-17T10:25:59.174Z,980.85
2023-01-17T10:26:59.141Z,980.81
2023-01-17T10:27:59.200Z,980.92
2023-01-17T10:28:59.117Z,980.80
2023-01-17T10:29:59.130Z,980.79
2023-01-17T10:30:59.126Z,980.78
2023-01-17T10:31:59.109Z,980.77
2023-01-17T10:32:59.077Z,980.77
2023-01-17T10:33:59.099Z,980.77
2023-01-17T10:34:59.060Z,980.76
2023-01-17T10:35:59.070Z,980.76
2023-01-17T10:36:59.038Z,980.76
2023-01-17T10:37:59.051Z,980.75
2023-01-17T10:38:59.029Z,980.82
2023-01-17T10:39:59.029Z,980.80
2023-01-17T10:40:58.993Z,980.80
2023-01-17T10:41:59.009Z,980.77
2023-01-17T10:42:58.981Z,980.78
2023-01-17T10:43:58.993Z,980.78
2023-01-17T10:44:58.970Z,980.78
2023-01-17T10:45:58.999Z,980.80
2023-01-17T10:46:58.933Z,980.78
2023-01-17T10:47:58.953Z,980.79
2023-01-17T10:48:58.916Z,980.79
2023-01-17T10:49:58.955Z,980.78
2023-01-17T10:50:58.893Z,980.80
2023-01-17T10:51:58.964Z,980.81
2023-01-17T10:52:58.888Z,980.79
2023-01-17T10:54:01.666Z,980.81
2023-01-17T10:54:58.853Z,980.78
2023-01-17T10:55:58.876Z,980.77
2023-01-17T10:56:58.835Z,980.79
2023-01-17T10:57:58.845Z,980.78
2023-01-17T10:58:58.814Z,980.80
2023-01-17T10:59:58.823Z,980.81
2023-01-17T11:00:58.835Z,980.81
2023-01-17T11:01:58.858Z,980.79
2023-01-17T11:02:58.797Z,980.78
2023-01-17T11:03:58.803Z,980.79
2023-01-17T11:04:58.755Z,980.79
2023-01-17T11:05:58.770Z,980.76
2023-01-17T11:06:58.740Z,980.78
2023-01-17T11:07:58.743Z,980.77
2023-01-17T11:08:58.707Z,980.79
2023-01-17T11:09:58.722Z,980.78
2023-01-17T11:10:58.689Z,980.78
2023-01-17T11:11:58.723Z,980.76
2023-01-17T11:12:58.670Z,980.75
2023-01-17T11:13:58.689Z,980.76
2023-01-17T11:14:58.772Z,980.79
2023-01-17T11:15:58.692Z,980.81
2023-01-17T11:16:58.631Z,980.82
2023-01-17T11:17:58.650Z,980.85
2023-01-17T11:18:58.614Z,980.81
2023-01-17T11:19:58.620Z,980.86
2023-01-17T11:20:58.618Z,980.85
2023-01-17T11:21:58.600Z,980.84
2023-01-17T11:22:58.581Z,980.82
2023-01-17T11:23:58.584Z,980.82
2023-01-17T11:24:58.547Z,980.80
2023-01-17T11:25:58.588Z,980.77
2023-01-17T11:26:58.527Z,980.79
2023-01-17T11:27:58.568Z,980.80
2023-01-17T11:28:58.508Z,980.79
2023-01-17T11:29:58.518Z,980.78
2023-01-17T11:30:58.505Z,980.78
2023-01-17T11:31:58.501Z,980.79
2023-01-17T11:32:58.464Z,980.76
2023-01-17T11:33:58.487Z,980.74
2023-01-17T11:34:58.441Z,980.74
2023-01-17T11:35:58.457Z,980.73
2023-01-17T11:36:58.425Z,980.72
2023-01-17T11:37:58.440Z,980.72
2023-01-17T11:38:58.438Z,980.72
2023-01-17T11:39:58.421Z,980.72
2023-01-17T11:40:58.386Z,980.74
2023-01-17T11:41:58.394Z,980.73
2023-01-17T11:42:58.360Z,980.73
2023-01-17T11:43:58.378Z,980.75
2023-01-17T11:44:58.352Z,980.74
2023-01-17T11:45:58.408Z,980.75
2023-01-17T11:46:58.319Z,980.75
2023-01-17T11:47:58.341Z,980.74
2023-01-17T11:48:58.298Z,980.73
2023-01-17T11:49:58.339Z,980.75
2023-01-17T11:50:58.278Z,980.75
2023-01-17T11:51:58.290Z,980.76
2023-01-17T11:52:58.258Z,980.75
2023-01-17T11:53:58.273Z,980.74
2023-01-17T11:54:58.240Z,980.74
2023-01-17T11:55:58.281Z,980.73
2023-01-17T11:56:58.220Z,980.74
2023-01-17T11:57:58.229Z,980.73
2023-01-17T11:58:58.194Z,980.72
2023-01-17T11:59:58.208Z,980.71
2023-01-17T12:00:58.261Z,980.72
2023-01-17T12:01:58.189Z,980.71
2023-01-17T12:02:58.157Z,980.71
2023-01-17T12:03:58.207Z,980.72
2023-01-17T12:04:58.186Z,980.72
2023-01-17T12:05:58.151Z,980.72
2023-01-17T12:06:58.682Z,980.70
2023-01-17T12:07:58.131Z,980.71
2023-01-17T12:08:58.097Z,980.69
2023-01-17T12:09:58.103Z,980.69
2023-01-17T12:10:58.079Z,980.68
2023-01-17T12:11:58.102Z,980.67
2023-01-17T12:12:58.052Z,980.67
2023-01-17T12:13:58.066Z,980.67
2023-01-17T12:14:58.029Z,980.66
2023-01-17T12:15:58.082Z,980.64
2023-01-17T12:16:58.009Z,980.65
2023-01-17T12:17:58.031Z,980.62
2023-01-17T12:18:57.989Z,980.60
2023-01-17T12:19:58.003Z,980.59
2023-01-17T12:20:57.965Z,980.59
2023-01-17T12:21:57.985Z,980.60
2023-01-17T12:22:57.977Z,980.60
2023-01-17T12:23:57.969Z,980.58
2023-01-17T12:24:57.927Z,980.61
2023-01-17T12:25:57.958Z,980.59
2023-01-17T12:26:57.907Z,980.59
2023-01-17T12:27:57.917Z,980.57